Buckcreek, Iowa
Current Conditions -  °F | °C
As of 10:35 AM on Monday 24 Nov 2014 (Local Time) from KOLZ Reporting Station
Haze Haze  
Wind Chill:   Ceiling: 1100
Heat Index: 23°   Visibility: 6mi
Dew Point: 19°   Wind: 29mph
Humidity: 86%   Direction: 300°WNW
Pressure: 29.41"   Gusts: 37mph
Location:  42.8281°N, 92.1565°W
Report Text: KOLZ 241635Z AUTO 30025G32KT 6SM BR OVC011 M05/M07 A2941 RMK AO2
Loading
Personal Weather Stations






























Interactive Weather Map New forecast layout! Learn more

10-Day Weather Forecast

Advertisements
Track Severe Weather on mobile